Time;durP1;ratioP1;P1;durP2;ratioP2;P2;SDS_P1;SDS_P2;PMS_P1;PMS_P2;Temp;Humidity;BMP_temperature;BMP_pressure;BME280_temperature;BME280_humidity;BME280_pressure;Samples;Min_cycle;Max_cycle;Signal;HPM_P1;HPM_P2
2022/10/04 00:01:26;;;;;;;4.60;1.08;;;;;;;22.54;47.09;102067.13;4182962;28;20201;-60
2022/10/04 00:03:34;;;;;;;3.78;1.00;;;;;;;22.54;47.03;102061.56;4187898;28;20040;-60
2022/10/04 00:05:40;;;;;;;5.63;1.00;;;;;;;22.56;47.22;102067.72;4184615;28;20162;-60
2022/10/04 00:07:54;;;;;;;4.68;1.10;;;;;;;22.57;47.08;102077.78;4182801;28;20546;-61
2022/10/04 00:10:00;;;;;;;5.72;0.98;;;;;;;22.59;47.22;102072.78;4182615;28;20048;-60
2022/10/04 00:12:03;;;;;;;8.10;1.10;;;;;;;22.58;47.30;102062.72;4182457;28;20103;-60
2022/10/04 00:14:16;;;;;;;7.68;1.00;;;;;;;22.57;46.87;102074.97;4184701;28;20402;-60
2022/10/04 00:16:30;;;;;;;5.38;0.90;;;;;;;22.57;47.13;102073.03;4201274;28;20044;-60
2022/10/04 00:18:44;;;;;;;3.45;1.05;;;;;;;22.57;47.00;102073.03;4182540;28;20099;-60
2022/10/04 00:20:52;;;;;;;4.88;0.90;;;;;;;22.59;46.99;102075.56;4182550;28;20435;-60
2022/10/04 00:23:27;;;;;;;4.65;0.82;;;;;;;22.57;46.98;102074.97;4186934;28;20041;-60
2022/10/04 00:25:35;;;;;;;3.47;1.23;;;;;;;22.55;47.05;102069.69;4182519;28;20102;-60
2022/10/04 00:27:38;;;;;;;5.25;1.02;;;;;;;22.59;47.14;102081.16;4180024;28;20130;-59
2022/10/04 00:30:08;;;;;;;5.88;1.13;;;;;;;22.60;46.82;102082.84;4197666;28;20048;-60
2022/10/04 00:32:09;;;;;;;6.95;1.05;;;;;;;22.63;47.00;102073.91;4193047;28;20056;-60
2022/10/04 00:34:10;;;;;;;4.78;0.90;;;;;;;22.64;46.78;102072.00;4199068;28;20044;-59
2022/10/04 00:36:34;;;;;;;3.03;0.95;;;;;;;22.64;46.96;102072.81;4196879;28;20109;-59
2022/10/04 00:38:35;;;;;;;3.20;0.65;;;;;;;22.71;46.68;102075.38;4195503;28;20048;-60
2022/10/04 00:40:54;;;;;;;3.72;0.90;;;;;;;22.73;46.75;102076.81;4182581;28;20546;-60
2022/10/04 00:43:00;;;;;;;3.38;0.80;;;;;;;22.76;46.68;102076.25;4181740;28;20489;-60
2022/10/04 00:45:07;;;;;;;1.17;0.65;;;;;;;22.77;46.66;102064.00;4198346;28;20113;-61
2022/10/04 00:47:33;;;;;;;3.10;0.52;;;;;;;22.78;46.66;102068.47;4188448;28;20094;-61
2022/10/04 00:49:41;;;;;;;2.42;0.80;;;;;;;22.82;46.58;102066.84;4191605;28;20090;-61
2022/10/04 00:51:54;;;;;;;4.22;0.60;;;;;;;22.81;46.48;102073.50;4181282;28;20040;-60
2022/10/04 00:54:21;;;;;;;3.53;0.90;;;;;;;22.70;46.62;102051.38;4183843;28;20110;-61
2022/10/04 00:56:37;;;;;;;4.75;1.02;;;;;;;22.88;46.54;102061.31;4181078;28;20048;-60
2022/10/04 00:59:08;;;;;;;2.47;0.82;;;;;;;22.87;46.81;102070.78;4185214;28;20040;-60
2022/10/04 01:01:09;;;;;;;5.95;1.05;;;;;;;22.91;46.43;102061.66;4180571;28;20091;-60
2022/10/04 01:03:19;;;;;;;2.88;0.90;;;;;;;22.93;46.65;102069.75;4185627;28;20098;-60
2022/10/04 01:05:46;;;;;;;3.88;1.00;;;;;;;22.92;46.84;102065.28;4181237;28;20090;-60
2022/10/04 01:07:56;;;;;;;1.88;0.65;;;;;;;22.96;46.70;102060.84;4181304;28;20036;-60
2022/10/04 01:10:21;;;;;;;3.60;0.70;;;;;;;22.95;46.54;102053.56;4181627;28;20045;-61
2022/10/04 01:12:51;;;;;;;6.17;1.20;;;;;;;22.96;46.75;102055.25;4181649;28;20037;-61
2022/10/04 01:15:10;;;;;;;2.15;0.77;;;;;;;22.98;46.67;102053.03;4196089;28;20044;-60
2022/10/04 01:17:14;;;;;;;3.08;0.70;;;;;;;23.00;46.71;102048.88;4189713;28;20464;-61
2022/10/04 01:19:30;;;;;;;5.38;1.05;;;;;;;22.96;46.52;102046.88;4181057;28;20442;-61
2022/10/04 01:21:31;;;;;;;1.27;0.70;;;;;;;23.00;46.66;102042.41;4182121;28;20106;-61
2022/10/04 01:23:59;;;;;;;7.25;1.10;;;;;;;22.97;46.49;102042.97;4181520;28;20052;-61
2022/10/04 01:26:22;;;;;;;2.95;0.60;;;;;;;23.01;46.43;102049.72;4197704;28;20517;-61
2022/10/04 01:28:24;;;;;;;4.82;0.90;;;;;;;22.97;46.57;102037.41;4195572;28;20070;-60
2022/10/04 01:30:25;;;;;;;4.97;0.90;;;;;;;23.00;46.67;102043.28;4185970;28;20040;-59
2022/10/04 01:32:30;;;;;;;3.50;0.63;;;;;;;23.01;46.53;102038.53;4181261;28;20095;-60
2022/10/04 01:34:32;;;;;;;1.88;0.80;;;;;;;22.98;46.84;102036.28;4189321;28;20454;-60
2022/10/04 01:36:35;;;;;;;1.73;0.88;;;;;;;23.01;46.54;102044.13;4187318;28;20554;-60
2022/10/04 01:38:37;;;;;;;4.38;0.90;;;;;;;22.98;46.45;102034.31;4181425;28;20111;-60
2022/10/04 01:40:49;;;;;;;4.13;0.90;;;;;;;23.01;46.53;102038.53;4197714;28;20093;-60
2022/10/04 01:42:59;;;;;;;1.60;0.70;;;;;;;22.89;46.69;102016.41;4193496;28;20048;-60
2022/10/04 01:45:09;;;;;;;2.45;0.80;;;;;;;23.02;46.47;102029.06;4187611;28;20053;-60
2022/10/04 01:47:30;;;;;;;4.82;0.68;;;;;;;23.02;46.66;102031.84;4192256;28;20523;-59
2022/10/04 01:49:35;;;;;;;3.15;0.80;;;;;;;23.02;46.36;102029.06;4181594;28;20094;-60
2022/10/04 01:52:19;;;;;;;2.28;0.80;;;;;;;22.98;46.53;102034.31;4182004;28;20045;-58
2022/10/04 01:54:42;;;;;;;1.75;0.93;;;;;;;23.02;46.65;102024.31;4162140;28;20044;-59
2022/10/04 01:56:59;;;;;;;3.72;0.70;;;;;;;23.02;46.31;102017.88;4185607;28;20099;-59
2022/10/04 01:59:06;;;;;;;1.35;0.70;;;;;;;23.03;46.68;102014.81;4191670;28;20495;-59
2022/10/04 02:01:18;;;;;;;5.57;0.60;;;;;;;23.03;46.47;102011.19;4181297;28;20071;-59
2022/10/04 02:03:31;;;;;;;1.05;0.38;;;;;;;23.00;46.47;102009.78;4180881;28;20102;-58
2022/10/04 02:05:37;;;;;;;4.53;0.90;;;;;;;23.00;46.21;102007.00;4183724;28;20102;-59
2022/10/04 02:07:40;;;;;;;3.67;0.60;;;;;;;23.01;46.30;101999.47;4187694;28;20048;-59
2022/10/04 02:09:46;;;;;;;1.00;0.80;;;;;;;22.99;46.10;101991.34;4191351;28;20048;-59
2022/10/04 02:11:52;;;;;;;1.58;0.60;;;;;;;22.97;46.24;101987.16;4182744;28;20094;-60
2022/10/04 02:13:57;;;;;;;1.70;0.73;;;;;;;22.96;46.26;101979.88;4191728;28;20074;-59
2022/10/04 02:15:59;;;;;;;1.30;0.52;;;;;;;22.92;46.64;101973.16;4185729;28;20058;-62
2022/10/04 02:18:04;;;;;;;6.80;0.90;;;;;;;22.95;46.22;101967.03;4191578;28;20102;-59
2022/10/04 02:20:15;;;;;;;4.85;0.95;;;;;;;22.77;46.42;101938.44;4187421;28;20044;-58
2022/10/04 02:22:18;;;;;;;3.38;0.65;;;;;;;22.98;46.46;101974.88;4183426;28;20041;-59
2022/10/04 02:24:20;;;;;;;3.83;0.82;;;;;;;22.96;46.36;101974.31;4178902;28;20041;-59
2022/10/04 02:26:22;;;;;;;1.42;0.90;;;;;;;22.84;46.40;101961.34;4193518;28;20040;-59
2022/10/04 02:28:23;;;;;;;2.55;0.95;;;;;;;22.75;46.24;101940.66;4185154;28;20057;-59
2022/10/04 02:30:25;;;;;;;3.72;0.65;;;;;;;22.93;46.41;101972.06;4182728;28;20041;-60
2022/10/04 02:34:49;;;;;;;1.63;0.60;;;;;;;22.89;46.39;101956.91;4184033;28;20423;-60
2022/10/04 02:36:51;;;;;;;2.92;0.75;;;;;;;22.88;46.49;101961.66;4186314;28;20208;-59
2022/10/04 02:39:28;;;;;;;1.05;0.50;;;;;;;22.87;46.48;101964.72;4187544;28;20083;-60
2022/10/04 02:41:34;;;;;;;2.92;0.70;;;;;;;22.89;46.29;101968.06;4192898;28;20046;-60
2022/10/04 02:43:52;;;;;;;2.40;0.65;;;;;;;22.89;46.37;101956.91;4186241;28;20041;-60
2022/10/04 02:46:06;;;;;;;3.30;0.80;;;;;;;22.90;46.37;101958.63;4186756;28;20373;-60
2022/10/04 02:48:31;;;;;;;2.10;0.80;;;;;;;22.88;46.53;101960.81;4202823;28;20089;-60
2022/10/04 02:50:34;;;;;;;5.63;0.95;;;;;;;22.90;46.52;101953.03;4197913;28;20048;-60
2022/10/04 02:52:44;;;;;;;13.18;1.50;;;;;;;22.90;46.55;101953.03;4190960;28;20442;-59
2022/10/04 02:55:01;;;;;;;5.60;0.90;;;;;;;22.89;46.43;101952.19;4194074;28;20422;-59
2022/10/04 02:57:03;;;;;;;3.70;0.52;;;;;;;22.93;46.38;101946.94;4186157;28;20025;-59
2022/10/04 02:59:15;;;;;;;3.40;0.80;;;;;;;22.93;46.14;101944.13;4185095;28;20473;-59
2022/10/04 03:01:25;;;;;;;5.95;1.08;;;;;;;22.81;46.59;101928.41;4186166;28;20098;-59
2022/10/04 03:03:30;;;;;;;6.90;1.00;;;;;;;22.95;46.39;101939.94;4185012;28;20480;-58
2022/10/04 03:05:35;;;;;;;6.90;1.02;;;;;;;22.98;46.07;101927.41;4185334;28;20041;-59
2022/10/04 03:07:38;;;;;;;1.67;0.57;;;;;;;22.89;46.49;101912.25;4196995;28;20052;-59
2022/10/04 03:09:39;;;;;;;3.10;0.70;;;;;;;22.92;45.97;101917.34;4191323;28;20048;-59
2022/10/04 03:11:41;;;;;;;3.35;0.55;;;;;;;22.74;46.40;101885.97;4191962;28;20105;-59
2022/10/04 03:13:50;;;;;;;7.70;0.80;;;;;;;23.01;46.15;101924.09;4202605;28;20045;-59
2022/10/04 03:15:52;;;;;;;3.50;0.70;;;;;;;22.90;46.38;101905.59;4191889;28;20037;-59
2022/10/04 03:17:53;;;;;;;1.00;0.60;;;;;;;23.02;46.16;101920.19;4186077;28;20037;-59
2022/10/04 03:19:56;;;;;;;5.45;1.00;;;;;;;23.01;46.17;101926.88;4185672;28;20547;-59
2022/10/04 03:22:09;;;;;;;3.05;0.95;;;;;;;23.01;46.36;101921.28;4188604;28;20103;-59
2022/10/04 03:24:19;;;;;;;8.52;0.77;;;;;;;23.02;45.87;101923.81;4197524;28;20075;-59
2022/10/04 03:26:41;;;;;;;3.63;0.70;;;;;;;22.96;45.98;101912.91;4200631;28;20114;-59
2022/10/04 03:28:44;;;;;;;3.40;0.80;;;;;;;23.04;45.85;101920.72;4212267;28;20036;-59
2022/10/04 03:30:47;;;;;;;3.22;0.60;;;;;;;23.03;45.89;101930.22;4202270;28;20550;-59
2022/10/04 03:32:49;;;;;;;5.78;0.80;;;;;;;23.03;45.68;101927.44;4189275;28;20036;-59
2022/10/04 03:35:00;;;;;;;4.65;0.73;;;;;;;23.02;45.75;101922.97;4185898;28;20086;-59
2022/10/04 03:37:05;;;;;;;3.47;0.90;;;;;;;23.04;45.66;101923.53;4187501;28;20040;-59
2022/10/04 03:39:08;;;;;;;;;;;;;;;23.03;46.12;101919.06;4199236;28;20549;-59
2022/10/04 03:41:12;;;;;;;2.40;0.90;;;;;;;23.06;45.86;101913.78;4202669;28;19920;-59
2022/10/04 03:43:13;;;;;;;1.73;0.50;;;;;;;23.07;46.03;101914.63;4201846;28;20099;-58
2022/10/04 03:45:19;;;;;;;2.28;0.50;;;;;;;23.05;45.79;101905.69;4195443;28;20041;-58
2022/10/04 03:47:31;;;;;;;2.83;0.73;;;;;;;23.03;45.91;101910.69;4190321;28;20086;-59
2022/10/04 03:49:35;;;;;;;4.55;0.50;;;;;;;22.97;45.93;101898.66;4192452;28;20040;-59
2022/10/04 03:51:51;;;;;;;4.05;0.63;;;;;;;23.02;45.84;101897.84;4183708;28;20417;-59
2022/10/04 03:53:57;;;;;;;2.88;0.82;;;;;;;23.02;45.89;101898.69;4196019;28;20044;-58
2022/10/04 03:56:13;;;;;;;2.13;0.65;;;;;;;23.01;45.70;101893.38;4197204;28;20391;-58
2022/10/04 03:58:17;;;;;;;1.05;0.45;;;;;;;23.03;45.85;101878.03;4194879;28;20102;-59
2022/10/04 04:00:19;;;;;;;2.63;0.63;;;;;;;22.92;45.75;101879.09;4181952;28;20036;-59
2022/10/04 04:02:33;;;;;;;1.48;0.60;;;;;;;23.02;45.77;101886.69;4181566;28;20439;-59
2022/10/04 04:04:49;;;;;;;2.70;0.85;;;;;;;23.01;45.62;101871.88;4181058;28;20103;-60
2022/10/04 04:06:59;;;;;;;1.38;0.50;;;;;;;23.03;45.76;101864.06;4183396;28;20041;-59
2022/10/04 04:09:04;;;;;;;1.10;0.57;;;;;;;23.04;45.74;101859.31;4184471;28;20116;-60
2022/10/04 04:11:10;;;;;;;2.80;0.50;;;;;;;22.90;45.80;101841.41;4193774;28;20449;-60
2022/10/04 04:13:33;;;;;;;0.98;0.40;;;;;;;22.83;45.62;101830.47;4197640;28;20443;-60
2022/10/04 04:15:40;;;;;;;1.85;0.50;;;;;;;22.99;45.74;101842.56;4182592;28;20072;-60
2022/10/04 04:17:52;;;;;;;1.10;0.63;;;;;;;22.97;45.66;101844.78;4182511;28;20526;-60
2022/10/04 04:19:57;;;;;;;3.55;0.57;;;;;;;22.95;45.88;101830.25;4182575;28;20059;-60
2022/10/04 04:21:59;;;;;;;2.05;0.70;;;;;;;23.07;45.59;101856.81;4183860;28;20156;-60
2022/10/04 04:24:11;;;;;;;2.42;0.80;;;;;;;22.94;45.89;101826.63;4185904;28;20044;-59
2022/10/04 04:26:18;;;;;;;3.92;0.75;;;;;;;23.06;45.84;101846.78;4202452;28;20349;-59
2022/10/04 04:29:04;;;;;;;2.20;0.63;;;;;;;23.04;45.76;101843.41;4193628;28;20183;-60
2022/10/04 04:31:17;;;;;;;3.13;0.60;;;;;;;23.06;45.67;101840.38;4195042;28;20052;-59
2022/10/04 04:33:29;;;;;;;1.88;0.60;;;;;;;22.98;45.89;101824.13;4198679;28;20045;-60
2022/10/04 04:35:32;;;;;;;1.50;0.40;;;;;;;23.10;45.72;101838.69;4198564;28;20048;-59
2022/10/04 04:37:37;;;;;;;1.15;0.63;;;;;;;23.08;45.54;101826.94;4199055;28;20097;-59
2022/10/04 04:41:40;;;;;;;1.80;0.80;;;;;;;23.08;45.60;101836.16;4186956;28;20078;-59
2022/10/04 04:43:44;;;;;;;2.35;0.50;;;;;;;23.07;45.71;101833.66;4181786;28;20033;-60
2022/10/04 04:45:50;;;;;;;0.60;0.50;;;;;;;23.07;45.81;101828.06;4183700;28;20114;-59
2022/10/04 04:47:56;;;;;;;0.88;0.40;;;;;;;23.07;45.88;101825.28;4196119;28;20414;-59
2022/10/04 04:50:16;;;;;;;1.15;0.70;;;;;;;23.07;45.54;101825.28;4198648;28;20048;-59
2022/10/04 04:52:22;;;;;;;1.30;0.55;;;;;;;22.87;45.73;101777.75;4196008;28;20048;-59
2022/10/04 04:54:29;;;;;;;0.73;0.43;;;;;;;23.09;45.78;101820.25;4191707;28;20434;-59
2022/10/04 04:56:30;;;;;;;2.13;0.70;;;;;;;23.08;45.66;101810.19;4189076;28;20544;-59
2022/10/04 04:58:38;;;;;;;1.80;0.50;;;;;;;23.07;45.73;101814.13;4187573;28;20118;-59
2022/10/04 05:00:40;;;;;;;2.13;0.50;;;;;;;23.09;45.88;101811.88;4181731;28;20634;-60
2022/10/04 05:02:56;;;;;;;1.63;0.40;;;;;;;23.07;45.91;101819.69;4194889;28;20395;-60
2022/10/04 05:05:16;;;;;;;1.35;0.60;;;;;;;23.07;45.90;101801.00;4198166;28;20101;-59
2022/10/04 05:07:18;;;;;;;0.65;0.50;;;;;;;23.10;45.48;101801.56;4193668;28;20049;-60
2022/10/04 05:09:34;;;;;;;2.45;0.80;;;;;;;23.08;45.80;101805.44;4184748;28;20578;-60
2022/10/04 05:11:38;;;;;;;0.70;0.40;;;;;;;23.01;45.47;101790.94;4189386;28;20505;-59
2022/10/04 05:14:04;;;;;;;3.05;0.40;;;;;;;23.07;45.79;101802.94;4197993;28;20387;-60
2022/10/04 05:16:23;;;;;;;0.88;0.50;;;;;;;23.07;45.56;101792.63;4188195;28;20045;-59
2022/10/04 05:18:30;;;;;;;0.98;0.43;;;;;;;22.35;45.41;101661.50;4198489;28;20098;-60
2022/10/04 05:20:34;;;;;;;1.02;0.60;;;;;;;23.10;45.49;101784.81;4191752;28;20114;-59
2022/10/04 05:22:40;;;;;;;2.08;0.63;;;;;;;23.10;45.77;101774.50;4181195;28;20098;-60
2022/10/04 05:24:45;;;;;;;1.77;0.70;;;;;;;23.09;45.46;101772.78;4181823;28;20094;-60
2022/10/04 05:26:52;;;;;;;0.98;0.60;;;;;;;23.09;45.39;101772.78;4184643;28;20041;-59
2022/10/04 05:28:58;;;;;;;0.90;0.60;;;;;;;23.09;45.56;101764.41;4196121;28;20095;-59
2022/10/04 05:31:07;;;;;;;3.08;0.65;;;;;;;23.09;45.65;101767.22;4197871;28;20036;-60
2022/10/04 05:33:35;;;;;;;1.63;0.52;;;;;;;23.08;45.77;101771.97;4201878;28;20089;-59
2022/10/04 05:35:45;;;;;;;0.63;0.52;;;;;;;23.09;45.36;101767.22;4181256;28;20103;-59
2022/10/04 05:38:00;;;;;;;1.27;0.40;;;;;;;23.09;45.54;101767.22;4181770;28;20091;-60
2022/10/04 05:40:22;;;;;;;1.90;0.45;;;;;;;23.08;45.42;101759.94;4181580;28;20037;-59
2022/10/04 05:42:30;;;;;;;1.35;0.60;;;;;;;23.07;45.42;101763.88;4181353;28;20461;-59
2022/10/04 05:44:36;;;;;;;2.38;0.40;;;;;;;23.07;45.64;101764.69;4181718;28;20473;-59
2022/10/04 05:46:37;;;;;;;0.80;0.50;;;;;;;23.08;45.57;101760.78;4181658;28;20067;-60
2022/10/04 05:48:42;;;;;;;1.45;0.50;;;;;;;23.07;45.58;101761.06;4181507;28;20435;-60
2022/10/04 05:50:44;;;;;;;2.65;0.60;;;;;;;23.07;45.59;101752.69;4192029;28;20565;-60
2022/10/04 05:52:49;;;;;;;0.88;0.50;;;;;;;23.07;45.38;101755.50;4197717;28;20036;-59
2022/10/04 05:55:33;;;;;;;0.90;0.40;;;;;;;23.04;45.30;101770.00;4197531;28;20044;-59
2022/10/04 05:58:05;;;;;;;2.30;0.40;;;;;;;23.05;45.35;101766.09;4191677;28;20041;-60
2022/10/04 06:00:19;;;;;;;1.10;0.50;;;;;;;23.04;45.73;101761.63;4181304;28;20040;-60
2022/10/04 06:02:36;;;;;;;0.57;0.40;;;;;;;23.07;45.34;101758.28;4185999;28;20040;-60
2022/10/04 06:04:58;;;;;;;1.55;0.75;;;;;;;23.04;45.67;101759.66;4197754;28;20090;-59
2022/10/04 06:07:28;;;;;;;0.40;0.40;;;;;;;23.04;45.35;101753.25;4189576;28;20098;-60
2022/10/04 06:09:44;;;;;;;1.05;0.55;;;;;;;23.06;45.34;101767.78;4181672;28;20094;-60
2022/10/04 06:11:55;;;;;;;1.45;0.60;;;;;;;23.06;45.41;101753.81;4193092;28;20419;-60
2022/10/04 06:14:09;;;;;;;0.90;0.60;;;;;;;23.06;45.28;101753.81;4182243;28;20407;-60
2022/10/04 06:16:28;;;;;;;0.70;0.50;;;;;;;22.91;45.41;101734.22;4197462;28;20086;-60
2022/10/04 06:18:40;;;;;;;0.95;0.50;;;;;;;23.04;45.28;101742.06;4194141;28;20110;-60
2022/10/04 06:21:03;;;;;;;1.08;0.40;;;;;;;23.04;45.16;101747.66;4182055;28;20040;-60
2022/10/04 06:23:17;;;;;;;5.50;0.50;;;;;;;23.04;45.13;101753.25;4194778;28;20048;-60
2022/10/04 06:25:27;;;;;;;1.33;0.50;;;;;;;22.91;45.05;101739.81;4191898;28;20098;-60
2022/10/04 06:27:48;;;;;;;0.70;0.65;;;;;;;23.02;45.17;101744.31;4180493;28;20045;-60
2022/10/04 06:30:11;;;;;;;0.57;0.40;;;;;;;23.02;45.27;101745.16;4181176;28;20040;-59
2022/10/04 06:32:22;;;;;;;0.77;0.43;;;;;;;23.05;45.13;101732.59;4180238;28;20041;-59
2022/10/04 06:34:57;;;;;;;1.20;0.50;;;;;;;23.02;45.00;101741.53;4183493;28;20061;-60
2022/10/04 06:37:37;;;;;;;0.43;0.40;;;;;;;23.03;45.00;101746.00;4182351;28;20045;-59
2022/10/04 06:39:57;;;;;;;1.27;0.35;;;;;;;23.01;45.24;101737.06;4185054;28;20095;-59
2022/10/04 06:42:07;;;;;;;1.95;0.30;;;;;;;23.02;45.30;101725.63;4195133;28;20102;-59
2022/10/04 06:44:39;;;;;;;0.90;0.40;;;;;;;23.00;45.31;101729.78;4184000;28;20048;-59
2022/10/04 06:46:58;;;;;;;0.68;0.50;;;;;;;23.01;44.89;101725.91;4182021;28;20904;-60
2022/10/04 06:49:30;;;;;;;0.40;0.40;;;;;;;22.98;45.02;101716.09;4183779;28;20049;-59
2022/10/04 06:51:50;;;;;;;0.30;0.20;;;;;;;23.02;45.03;101705.25;4180917;28;20041;-59
2022/10/04 06:54:03;;;;;;;0.77;0.40;;;;;;;23.01;45.19;101703.56;4180822;28;20106;-60
2022/10/04 06:56:25;;;;;;;0.52;0.50;;;;;;;22.97;45.26;101702.44;4190643;28;20430;-60
2022/10/04 06:59:06;;;;;;;0.65;0.40;;;;;;;22.96;45.35;101695.19;4186022;28;20442;-60
2022/10/04 07:01:38;;;;;;;1.65;0.60;;;;;;;22.96;45.40;101693.22;4196070;28;20044;-59
2022/10/04 07:03:50;;;;;;;0.75;0.40;;;;;;;22.98;45.10;101692.94;4195392;28;20098;-60
2022/10/04 07:06:03;;;;;;;0.60;0.40;;;;;;;22.96;45.05;101689.59;4195668;28;20048;-60
2022/10/04 07:08:49;;;;;;;0.63;0.63;;;;;;;22.96;45.08;101690.44;4193397;28;20057;-60
2022/10/04 07:10:58;;;;;;;0.40;0.32;;;;;;;22.92;44.92;101680.94;4127951;28;20046;-60
2022/10/04 07:13:08;;;;;;;2.20;0.40;;;;;;;22.98;45.19;101679.00;4159398;28;20053;-59
2022/10/04 07:15:23;;;;;;;2.25;0.50;;;;;;;22.96;45.12;101672.84;4194687;28;20049;-60
2022/10/04 07:17:30;;;;;;;0.90;0.50;;;;;;;22.97;45.24;101668.94;4185913;28;20094;-60
2022/10/04 07:19:38;;;;;;;1.65;0.57;;;;;;;22.98;44.99;101667.81;4191083;28;20036;-60
2022/10/04 07:21:55;;;;;;;0.93;0.30;;;;;;;22.98;45.04;101665.03;4192674;28;20098;-60
2022/10/04 07:24:02;;;;;;;0.60;0.50;;;;;;;22.98;45.08;101662.25;4182673;28;20087;-60
2022/10/04 07:26:27;;;;;;;1.50;0.40;;;;;;;22.95;45.06;101649.66;4185299;28;20105;-60
2022/10/04 07:31:02;;;;;;;0.40;0.35;;;;;;;23.02;45.14;101641.03;4199084;28;20418;-60
2022/10/04 07:33:07;;;;;;;1.88;0.70;;;;;;;22.89;44.95;101622.00;4185176;28;20041;-59
2022/10/04 07:35:11;;;;;;;0.98;0.30;;;;;;;23.01;45.20;101631.00;4191947;28;20747;-59
2022/10/04 07:37:17;;;;;;;0.52;0.30;;;;;;;23.01;44.97;101636.56;4182774;28;20477;-59
2022/10/04 07:39:28;;;;;;;0.40;0.40;;;;;;;23.00;45.30;101632.09;4183140;28;20049;-60
2022/10/04 07:41:50;;;;;;;0.70;0.30;;;;;;;22.96;45.12;101617.88;4197891;28;20086;-59
2022/10/04 07:43:58;;;;;;;1.23;0.47;;;;;;;22.98;45.19;101614.78;4183445;28;20037;-60
2022/10/04 07:46:40;;;;;;;0.77;0.50;;;;;;;22.95;45.31;101610.59;4192481;28;20040;-59
2022/10/04 07:48:42;;;;;;;0.60;0.30;;;;;;;23.04;44.98;101613.66;4187434;28;20044;-59
2022/10/04 07:50:58;;;;;;;0.77;0.50;;;;;;;23.02;45.33;101611.16;4193001;28;20094;-59
2022/10/04 07:53:07;;;;;;;0.65;0.30;;;;;;;23.03;45.15;101606.41;4197770;28;20102;-59
2022/10/04 07:55:36;;;;;;;0.85;0.30;;;;;;;23.01;45.07;101614.25;4183296;28;20049;-59
2022/10/04 07:58:06;;;;;;;1.35;0.30;;;;;;;23.04;45.02;101608.09;4196800;28;20102;-59
2022/10/04 08:00:20;;;;;;;0.40;0.40;;;;;;;22.92;45.29;101588.00;4185454;28;20037;-59
2022/10/04 08:02:40;;;;;;;1.60;0.40;;;;;;;23.01;45.38;101600.28;4193922;28;20033;-59
2022/10/04 08:05:00;;;;;;;0.80;0.50;;;;;;;23.05;45.31;101593.03;4189290;28;20045;-59
2022/10/04 08:07:16;;;;;;;0.75;0.40;;;;;;;23.04;45.32;101594.13;4197275;28;20049;-60
2022/10/04 08:09:28;;;;;;;0.70;0.40;;;;;;;23.03;45.00;101595.25;4198640;28;20040;-59
2022/10/04 08:11:39;;;;;;;0.85;0.40;;;;;;;22.98;45.21;101589.69;4198265;28;20446;-59
2022/10/04 08:13:59;;;;;;;1.17;0.47;;;;;;;23.03;45.13;101603.63;4199133;28;20053;-60
2022/10/04 08:16:10;;;;;;;0.85;0.50;;;;;;;21.09;44.93;101277.19;4198058;28;20040;-60
2022/10/04 08:19:00;;;;;;;1.02;0.40;;;;;;;23.03;45.09;101595.25;4183861;28;20091;-59
2022/10/04 08:21:07;;;;;;;0.70;0.40;;;;;;;23.04;45.21;101592.16;4161997;28;20045;-59
2022/10/04 08:23:38;;;;;;;0.63;0.40;;;;;;;23.01;45.21;101587.16;4173152;28;20565;-60
2022/10/04 08:25:45;;;;;;;1.17;0.40;;;;;;;23.06;45.17;101589.13;4182852;28;20484;-60
2022/10/04 08:31:09;;;;;;;0.85;0.50;;;;;;;23.05;45.17;101584.66;4199809;28;20090;-59
2022/10/04 08:33:25;;;;;;;0.77;0.50;;;;;;;23.05;44.98;101588.28;4192756;28;20052;-60
2022/10/04 08:35:32;;;;;;;0.38;0.30;;;;;;;23.06;45.25;101572.38;4182785;28;20369;-59
2022/10/04 08:37:58;;;;;;;0.55;0.30;;;;;;;23.03;45.25;101584.91;4186141;28;20036;-59
2022/10/04 08:40:25;;;;;;;1.70;0.47;;;;;;;23.03;45.37;101584.09;4194372;28;20089;-59
2022/10/04 08:42:40;;;;;;;0.40;0.38;;;;;;;23.07;45.15;101585.19;4185511;28;20041;-59
2022/10/04 08:44:48;;;;;;;0.60;0.50;;;;;;;23.05;45.08;101577.13;4195804;28;20098;-59
2022/10/04 08:47:09;;;;;;;0.40;0.30;;;;;;;23.04;44.98;101580.16;4199246;28;20106;-59
2022/10/04 08:49:52;;;;;;;0.52;0.30;;;;;;;23.03;45.37;101568.16;4195965;28;20037;-59
2022/10/04 08:52:11;;;;;;;0.50;0.20;;;;;;;23.04;45.31;101569.00;4192057;28;20507;-59
2022/10/04 08:54:27;;;;;;;0.43;0.32;;;;;;;23.05;45.17;101559.53;4198871;28;20094;-59
2022/10/04 08:57:09;;;;;;;0.73;0.50;;;;;;;23.02;45.07;101560.09;4189929;28;20113;-60
2022/10/04 08:59:45;;;;;;;0.30;0.30;;;;;;;22.75;44.95;101510.94;4198864;28;20106;-59
2022/10/04 09:02:05;;;;;;;0.82;0.40;;;;;;;23.05;45.17;101559.53;4198559;28;20455;-59
2022/10/04 09:04:52;;;;;;;1.08;0.30;;;;;;;23.02;45.11;101552.56;4198707;28;20480;-59
2022/10/04 09:07:22;;;;;;;0.38;0.20;;;;;;;23.06;45.01;101547.25;4198596;28;20048;-60
2022/10/04 09:09:51;;;;;;;1.23;0.32;;;;;;;23.05;45.23;101548.38;4182101;28;20049;-59
2022/10/04 09:12:15;;;;;;;0.32;0.30;;;;;;;23.04;45.17;101546.69;4181795;28;20075;-59
2022/10/04 09:14:30;;;;;;;0.65;0.30;;;;;;;23.04;45.07;101543.88;4182550;28;20045;-60
2022/10/04 09:16:48;;;;;;;;;;;;;;;23.03;45.01;101537.47;4182404;28;20053;-59
2022/10/04 09:19:11;;;;;;;0.98;0.38;;;;;;;23.09;44.61;101541.09;4182034;28;19917;-60
2022/10/04 09:21:52;;;;;;;0.35;0.35;;;;;;;23.04;44.85;101547.50;4181812;28;20037;-60
2022/10/04 09:24:25;;;;;;;1.10;0.40;;;;;;;23.04;44.96;101546.69;4164778;28;20366;-59
2022/10/04 09:26:53;;;;;;;0.60;0.30;;;;;;;23.06;44.83;101555.63;4181889;28;20114;-59
2022/10/04 09:29:18;;;;;;;2.15;0.30;;;;;;;23.04;44.78;101555.03;4173440;28;20431;-59
2022/10/04 09:31:26;;;;;;;0.40;0.40;;;;;;;23.04;45.09;101535.50;4182342;28;20091;-60
2022/10/04 09:34:06;;;;;;;0.28;0.20;;;;;;;23.01;44.99;101550.06;4181421;28;20037;-60
2022/10/04 09:36:39;;;;;;;0.82;0.40;;;;;;;23.01;44.87;101547.25;4178315;28;20517;-59
2022/10/04 09:38:50;;;;;;;0.45;0.38;;;;;;;23.03;45.04;101539.44;4176164;28;20518;-60
2022/10/04 09:41:12;;;;;;;0.82;0.50;;;;;;;23.00;45.04;101543.63;4181642;28;20554;-59
2022/10/04 09:43:56;;;;;;;1.08;0.40;;;;;;;22.99;44.76;101533.56;4193565;28;20422;-59
2022/10/04 09:46:43;;;;;;;0.32;0.32;;;;;;;22.90;44.82;101528.81;4168446;28;20479;-59
2022/10/04 09:48:57;;;;;;;;;;;;;;;23.02;44.87;101537.75;4196277;28;20495;-59
2022/10/04 09:51:06;;;;;;;0.40;0.40;;;;;;;23.06;44.78;101541.66;4186573;28;19962;-59
2022/10/04 09:53:45;;;;;;;0.80;0.60;;;;;;;23.03;44.96;101531.88;4197590;28;20036;-60
2022/10/04 09:56:25;;;;;;;0.70;0.40;;;;;;;23.01;44.73;101530.50;4197047;28;20549;-59
2022/10/04 09:59:04;;;;;;;0.40;0.28;;;;;;;23.00;44.95;101524.09;4187986;28;20045;-59
2022/10/04 10:01:21;;;;;;;0.50;0.30;;;;;;;23.00;44.92;101523.22;4191203;28;20110;-59
2022/10/04 10:04:04;;;;;;;0.30;0.30;;;;;;;22.96;44.95;101522.97;4194945;28;20053;-59
2022/10/04 10:06:24;;;;;;;0.40;0.40;;;;;;;22.84;44.90;101509.28;4150377;28;20086;-60
2022/10/04 10:08:56;;;;;;;0.82;0.38;;;;;;;22.95;44.84;101517.66;4180396;28;20569;-60
2022/10/04 10:14:00;;;;;;;0.30;0.30;;;;;;;22.95;44.78;101514.88;4192673;28;20456;-60
2022/10/04 10:16:12;;;;;;;0.40;0.40;;;;;;;22.97;44.79;101509.84;4195211;28;20053;-59
2022/10/04 10:18:23;;;;;;;0.30;0.30;;;;;;;22.90;45.04;101504.53;4193024;28;20041;-59
2022/10/04 10:20:50;;;;;;;0.65;0.40;;;;;;;22.96;44.69;101516.56;4183768;28;20045;-59
2022/10/04 10:23:30;;;;;;;0.88;0.40;;;;;;;22.92;44.84;101515.44;4195977;28;20163;-59
2022/10/04 10:26:06;;;;;;;0.47;0.40;;;;;;;22.94;44.71;101513.19;4191127;28;20102;-60
2022/10/04 10:28:31;;;;;;;0.65;0.35;;;;;;;22.96;44.92;101506.22;4153165;28;20052;-60
2022/10/04 10:31:04;;;;;;;0.52;0.40;;;;;;;22.96;44.66;101495.06;4190335;28;20044;-60
2022/10/04 10:33:37;;;;;;;0.45;0.30;;;;;;;22.94;44.91;101500.06;4183793;28;20466;-60
2022/10/04 10:35:57;;;;;;;0.50;0.30;;;;;;;22.95;44.96;101498.13;4180736;28;20063;-60
2022/10/04 10:38:39;;;;;;;0.40;0.40;;;;;;;22.95;44.91;101503.69;4183572;28;20391;-60
2022/10/04 10:41:18;;;;;;;0.40;0.38;;;;;;;22.95;44.88;101504.53;4181131;28;20045;-60
2022/10/04 10:43:50;;;;;;;0.30;0.30;;;;;;;22.95;44.90;101495.31;4180601;28;20049;-60